ADDS METAR Data INFO
IDs: Format: Raw Decoded Include TAF

Data at: 1124 UTC 17 Jul 2018

KI75 171115Z AUTO 00000KT 7SM CLR 17/16 A3008 RMK AO2 T01710162
KI75 171055Z AUTO 00000KT 10SM CLR 17/16 A3008 RMK AO2 T01700160
KI75 171035Z AUTO 00000KT 7SM CLR 17/16 A3009 RMK AO2 T01710161
KI75 171015Z AUTO 00000KT 10SM CLR 17/16 A3008 RMK AO2 T01700160
KI75 170955Z AUTO 00000KT 10SM CLR 17/16 A3008 RMK AO2 T01700160
KI75 170935Z AUTO 00000KT 10SM CLR 18/16 A3008 RMK AO2 T01750164
KI75 170915Z AUTO 00000KT 10SM CLR 18/17 A3008 RMK AO2 T01750165
KI75 170855Z AUTO 00000KT 10SM CLR 18/17 A3008 RMK AO2 T01780165
KI75 170835Z AUTO 00000KT 10SM CLR 18/17 A3008 RMK AO2 T01810169
KI75 170815Z AUTO 00000KT 10SM CLR 18/16 A3007 RMK AO2 T01760164
KI75 170755Z AUTO 00000KT 10SM CLR 18/17 A3007 RMK AO2 T01780167
KI75 170735Z AUTO 00000KT 10SM CLR 18/17 A3008 RMK AO2 T01800169
KI75 170715Z AUTO 00000KT 10SM CLR 18/17 A3009 RMK AO2 T01770167
KI75 170655Z AUTO 00000KT 10SM CLR 18/17 A3009 RMK AO2 T01810171
KI75 170635Z AUTO 00000KT 10SM CLR 18/17 A3009 RMK AO2 T01800169
KI75 170615Z AUTO 00000KT 10SM CLR 18/17 A3009 RMK AO2 T01820169
KI75 170555Z AUTO 00000KT 10SM CLR 19/17 A3009 RMK AO2 T01850173 10282 20185 403000185
KI75 170535Z AUTO 00000KT 10SM CLR 19/18 A3009 RMK AO2 T01870175
KI75 170515Z AUTO 00000KT 10SM CLR 20/18 A3008 RMK AO2 T01960178
KI75 170455Z AUTO 00000KT 10SM CLR 20/18 A3007 RMK AO2 T01970179
KI75 170435Z AUTO 04003KT 10SM CLR 20/18 A3007 RMK AO2 T02030180
KI75 170415Z AUTO 06003KT 10SM CLR 21/18 A3006 RMK AO2 T02050182
KI75 170355Z AUTO 04004KT 10SM CLR 21/18 A3006 RMK AO2 T02100182
KI75 170335Z AUTO 04003KT 10SM CLR 21/18 A3007 RMK AO2 T02130183
KI75 170315Z AUTO 04003KT 10SM CLR 21/19 A3006 RMK AO2 T02140187
KI75 170255Z AUTO 03003KT 10SM CLR 22/19 A3006 RMK AO2 T02160185
KI75 170235Z AUTO 03004KT 10SM CLR 22/19 A3006 RMK AO2 T02160187
KI75 170215Z AUTO 00000KT 10SM CLR 22/20 A3005 RMK AO2 T02180196
KI75 170155Z AUTO 03004KT 10SM CLR 23/19 A3004 RMK AO2 T02300187
KI75 170135Z AUTO 05003KT 10SM CLR 24/20 A3003 RMK AO2 T02390200
KI75 170115Z AUTO 03003KT 10SM CLR 25/20 A3003 RMK AO2 T02520200
KI75 170055Z AUTO 00000KT 10SM CLR 26/20 A3003 RMK AO2 T02620197
KI75 170035Z AUTO 04003KT 10SM CLR 27/19 A3003 RMK AO2 T02700187
KI75 170015Z AUTO 02003KT 10SM CLR 28/18 A3003 RMK AO2 T02770176
KI75 162355Z AUTO 01003KT 10SM CLR 28/17 A3003 RMK AO2 T02820173 10300 20282
KI75 162335Z AUTO 36005KT 10SM CLR 29/17 A3003 RMK AO2 T02870170
KI75 162315Z AUTO 34005KT 10SM CLR 29/18 A3004 RMK AO2 T02910176
KI75 162255Z AUTO 34005KT 10SM CLR 29/18 A3004 RMK AO2 T02940180
KI75 162235Z AUTO 35006KT 10SM CLR 30/19 A3003 RMK AO2 T02950192
KI75 162215Z AUTO 36004KT 10SM CLR 30/20 A3003 RMK AO2 T02950196
KI75 162155Z AUTO 01005KT 10SM CLR 30/20 A3003 RMK AO2 T02970196
KI75 162135Z AUTO 01004KT 10SM CLR 30/21 A3004 RMK AO2 T02990207
KI75 162115Z AUTO 31006KT 10SM CLR 30/20 A3004 RMK AO2 T03000196
KI75 162055Z AUTO 36004KT 10SM CLR 30/20 A3004 RMK AO2 T02980200
KI75 162035Z AUTO 33007KT 10SM CLR 30/21 A3004 RMK AO2 T02970206
KI75 162015Z AUTO 01005KT 10SM SCT034 30/21 A3005 RMK AO2 T02960210
KI75 161955Z AUTO 33007KT 300V360 10SM SCT034 30/21 A3005 RMK AO2 T02960210
KI75 161935Z AUTO 34006KT 10SM SCT030 30/22 A3006 RMK AO2 T02950216
KI75 161915Z AUTO 30006KT 280V340 10SM SCT030 29/21 A3006 RMK AO2 T02930214
KI75 161855Z AUTO 36005KT 10SM SCT028 29/21 A3006 RMK AO2 T02910213
KI75 161835Z AUTO 31005KT 10SM SCT028 29/22 A3006 RMK AO2 T02920221
KI75 161815Z AUTO 32006KT 10SM SCT027 29/22 A3006 RMK AO2 T02900217
KI75 161755Z AUTO 35004KT 10SM SCT027 29/21 A3007 RMK AO2 T02870213 10287 20219
KI75 161735Z AUTO 02003KT 10SM SCT025 28/21 A3007 RMK AO2 T02820214
KI75 161715Z AUTO 36006KT 10SM BKN023 28/21 A3007 RMK AO2 T02750214
KI75 161655Z AUTO 33006KT 10SM SCT023 28/22 A3008 RMK AO2 T02780217
KI75 161635Z AUTO 33004KT 10SM SCT021 28/21 A3008 RMK AO2 T02770214
KI75 161615Z AUTO 01004KT 10SM SCT019 SCT110 27/22 A3008 RMK AO2 T02730217
KI75 161555Z AUTO 35004KT 10SM SCT017 27/22 A3008 RMK AO2 T02710221
KI75 161535Z AUTO 34005KT 10SM SCT013 27/22 A3008 RMK AO2 T02650219
KI75 161515Z AUTO 33004KT 10SM BKN011 26/22 A3008 RMK AO2 T02550220
KI75 161455Z AUTO 33005KT 10SM OVC009 25/22 A3007 RMK AO2 T02500217
KI75 161435Z AUTO 01004KT 10SM BKN006 OVC011 24/21 A3007 RMK AO2 T02370214
KI75 161415Z AUTO 34004KT 10SM OVC006 23/21 A3007 RMK AO2 T02320213
KI75 161355Z AUTO 36006KT 10SM OVC004 23/22 A3006 RMK AO2 T02310215
KI75 161335Z AUTO 34007KT 10SM OVC004 23/22 A3006 RMK AO2 T02300215
KI75 161315Z AUTO 35006KT 10SM OVC004 23/22 A3005 RMK AO2 T02290215
KI75 161255Z AUTO 34007KT 10SM OVC004 23/22 A3004 RMK AO2 T02270215
KI75 161235Z AUTO 33006KT 10SM OVC004 23/21 A3004 RMK AO2 T02250213
KI75 161215Z AUTO 33005KT 7SM BKN004 22/21 A3003 RMK AO2 T02220210
KI75 161155Z AUTO 31004KT 7SM CLR 22/21 A3003 RMK AO2 T02180208 10237 20213
KI75 161135Z AUTO 33003KT 7SM CLR 22/21 A3003 RMK AO2 T02150205
KI75 161115Z AUTO 32003KT 10SM CLR 22/20 A3002 RMK AO2 T02150202
KI75 161055Z AUTO 31004KT 10SM CLR 21/20 A3002 RMK AO2 T02140200
KI75 161035Z AUTO 31004KT 10SM CLR 22/20 A3002 RMK AO2 T02150201
KI75 161015Z AUTO 30003KT 10SM CLR 22/20 A3001 RMK AO2 T02150200
KI75 160955Z AUTO 29004KT 10SM CLR 21/20 A3001 RMK AO2 T02140199
KI75 160935Z AUTO 30004KT 10SM CLR 22/20 A3001 RMK AO2 T02180201
KI75 160915Z AUTO 30003KT 10SM CLR 22/20 A3001 RMK AO2 T02170201
KI75 160855Z AUTO 29004KT 10SM CLR 22/20 A3001 RMK AO2 T02180200
KI75 160835Z AUTO 29004KT 10SM CLR 22/20 A3001 RMK AO2 T02190201
KI75 160815Z AUTO 00000KT 10SM CLR 22/20 A3001 RMK AO2 T02210202
KI75 160755Z AUTO 28005KT 10SM SCT080 22/20 A3001 RMK AO2 T02240202
KI75 160735Z AUTO 27004KT 10SM SCT080 23/21 A3001 RMK AO2 T02250205
KI75 160715Z AUTO 28005KT 10SM SCT080 23/21 A3001 RMK AO2 T02290206
KI75 160655Z AUTO 27004KT 10SM SCT085 23/21 A3001 RMK AO2 T02310207
KI75 160635Z AUTO 29004KT 10SM BKN075 24/21 A3001 RMK AO2 T02360208
KI75 160615Z AUTO 29004KT 10SM SCT065 OVC075 24/21 A3002 RMK AO2 T02370212
KI75 160555Z AUTO 27004KT 10SM OVC065 24/21 A3002 RMK AO2 T02350213 10303 20231 403150206
KI75 160535Z AUTO 28004KT 10SM SCT065 23/21 A3001 RMK AO2 T02320211
KI75 160515Z AUTO 28004KT 10SM CLR 23/21 A3001 RMK AO2 T02310211
KI75 160455Z AUTO 27004KT 10SM CLR 23/21 A3001 RMK AO2 T02320212
KI75 160435Z AUTO 28003KT 10SM CLR 24/21 A3001 RMK AO2 T02350212
KI75 160415Z AUTO 28004KT 10SM CLR 24/21 A3001 RMK AO2 T02370213
KI75 160355Z AUTO 28004KT 10SM CLR 24/22 A3000 RMK AO2 T02380215
KI75 160335Z AUTO 27004KT 10SM CLR 24/22 A3000 RMK AO2 T02380215
KI75 160315Z AUTO 28003KT 10SM CLR 24/22 A3000 RMK AO2 T02390215
KI75 160255Z AUTO 00000KT 10SM CLR 25/22 A2999 RMK AO2 T02500216
KI75 160235Z AUTO 30003KT 10SM CLR 26/22 A2998 RMK AO2 T02550217
KI75 160215Z AUTO 33003KT 10SM CLR 26/22 A2998 RMK AO2 T02550220
KI75 160155Z AUTO 30003KT 10SM CLR 26/22 A2998 RMK AO2 T02580221
KI75 160135Z AUTO 00000KT 10SM CLR 27/23 A2998 RMK AO2 T02660227
KI75 160115Z AUTO 32003KT 10SM CLR 28/22 A2997 RMK AO2 T02800219
KI75 160055Z AUTO 32003KT 10SM SCT042 29/22 A2997 RMK AO2 T02870217
KI75 160035Z AUTO 29004KT 10SM SCT042 30/21 A2997 RMK AO2 T02960209
KI75 160015Z AUTO 28004KT 10SM CLR 30/21 A2997 RMK AO2 T03000209
KI75 152355Z AUTO 32005KT 10SM CLR 30/21 A2996 RMK AO2 T03030207 10315 20289
KI75 152335Z AUTO 30005KT 10SM SCT043 SCT049 31/20 A2996 RMK AO2 T03060204